createdAt,value
2019-05-30T00:01:54.135Z,89.80
2019-05-30T00:04:22.782Z,89.70
2019-05-30T00:06:51.198Z,89.70
2019-05-30T00:09:22.569Z,89.80
2019-05-30T00:11:50.986Z,89.90
2019-05-30T00:14:19.396Z,89.80
2019-05-30T00:16:47.816Z,89.90
2019-05-30T00:19:16.214Z,89.80
2019-05-30T00:21:44.633Z,89.70
2019-05-30T00:26:41.128Z,90.10
2019-05-30T00:29:09.559Z,89.70
2019-05-30T00:31:37.964Z,89.60
2019-05-30T00:34:06.649Z,89.80
2019-05-30T00:36:35.076Z,89.90
2019-05-30T00:39:06.545Z,89.90
2019-05-30T00:41:35.320Z,90.00
2019-05-30T00:44:04.342Z,89.80
2019-05-30T00:46:33.088Z,90.00
2019-05-30T00:49:02.449Z,90.00
2019-05-30T00:51:31.015Z,90.00
2019-05-30T00:54:00.603Z,90.00
2019-05-30T00:56:29.215Z,90.10
2019-05-30T00:58:58.680Z,90.00
2019-05-30T01:01:27.511Z,89.80
2019-05-30T01:03:56.740Z,89.80
2019-05-30T01:06:25.205Z,89.70
2019-05-30T01:08:53.619Z,89.80
2019-05-30T01:11:22.035Z,89.70
2019-05-30T01:13:50.440Z,89.90
2019-05-30T01:16:18.856Z,90.10
2019-05-30T01:18:47.732Z,90.00
2019-05-30T01:21:16.160Z,90.10
2019-05-30T01:26:12.939Z,90.00
2019-05-30T01:28:41.357Z,90.10
2019-05-30T01:31:11.547Z,90.10
2019-05-30T01:33:39.953Z,90.10
2019-05-30T01:36:08.412Z,90.20
2019-05-30T01:38:36.817Z,90.20
2019-05-30T01:41:05.905Z,90.10
2019-05-30T01:46:02.708Z,89.70
2019-05-30T01:48:31.117Z,89.70
2019-05-30T01:51:00.326Z,89.80
2019-05-30T01:53:28.816Z,89.60
2019-05-30T01:58:25.292Z,89.40
2019-05-30T02:00:53.693Z,89.20
2019-05-30T02:03:22.110Z,89.50
2019-05-30T02:05:50.508Z,89.50
2019-05-30T02:10:46.992Z,89.20
2019-05-30T02:13:15.416Z,89.20
2019-05-30T02:15:43.884Z,89.10
2019-05-30T02:20:40.451Z,88.60
2019-05-30T02:23:10.018Z,88.80
2019-05-30T02:25:39.060Z,88.70
2019-05-30T02:28:08.225Z,88.70
2019-05-30T02:33:07.451Z,88.70
2019-05-30T02:35:35.915Z,88.90
2019-05-30T02:38:05.244Z,89.10
2019-05-30T02:43:03.642Z,89.20
2019-05-30T02:45:32.053Z,89.20
2019-05-30T02:48:01.277Z,89.10
2019-05-30T02:50:29.845Z,89.20
2019-05-30T02:52:58.262Z,89.20
2019-05-30T02:55:26.657Z,89.10
2019-05-30T02:57:55.074Z,89.20
2019-05-30T03:00:34.876Z,89.10
2019-05-30T03:03:04.432Z,89.00
2019-05-30T03:05:33.743Z,89.20
2019-05-30T03:08:04.510Z,89.20
2019-05-30T03:10:32.681Z,89.40
2019-05-30T03:15:31.136Z,89.80
2019-05-30T03:17:59.620Z,90.10
2019-05-30T03:20:28.369Z,90.20
2019-05-30T03:22:56.784Z,90.40
2019-05-30T03:25:25.184Z,90.40
2019-05-30T03:27:53.618Z,90.40
2019-05-30T03:30:28.255Z,90.50
2019-05-30T03:33:07.592Z,90.60
2019-05-30T03:35:29.350Z,90.80
2019-05-30T03:40:23.501Z,90.70
2019-05-30T03:42:51.589Z,90.80
2019-05-30T03:45:20.073Z,90.80
2019-05-30T03:47:54.599Z,90.70
2019-05-30T03:50:25.739Z,90.90
2019-05-30T03:52:54.480Z,90.80
2019-05-30T03:55:24.126Z,90.60
2019-05-30T03:58:12.786Z,90.70
2019-05-30T04:01:06.162Z,90.70
2019-05-30T04:03:44.481Z,90.60
2019-05-30T04:06:16.441Z,90.50
2019-05-30T04:08:48.373Z,90.50
2019-05-30T04:11:19.954Z,90.20
2019-05-30T04:16:19.709Z,90.50
2019-05-30T04:18:48.363Z,90.20
2019-05-30T04:21:20.927Z,90.10
2019-05-30T04:23:46.892Z,90.00
2019-05-30T04:26:15.912Z,90.00
2019-05-30T04:31:14.058Z,89.90
2019-05-30T04:33:42.692Z,90.00
2019-05-30T04:38:40.957Z,89.90
2019-05-30T04:41:11.158Z,89.90
2019-05-30T04:43:39.509Z,89.90
2019-05-30T04:46:10.041Z,89.90
2019-05-30T04:48:38.042Z,90.00
2019-05-30T04:51:06.466Z,90.10
2019-05-30T04:53:34.877Z,89.90
2019-05-30T04:56:03.364Z,89.60
2019-05-30T04:58:31.777Z,89.60
2019-05-30T05:01:00.254Z,89.50
2019-05-30T05:03:44.221Z,89.20
2019-05-30T05:05:58.812Z,89.50
2019-05-30T05:08:27.211Z,89.50
2019-05-30T05:10:55.639Z,89.20
2019-05-30T05:13:24.049Z,89.00
2019-05-30T05:20:49.770Z,88.30
2019-05-30T05:23:19.342Z,88.10
2019-05-30T05:26:00.527Z,87.80
2019-05-30T05:28:18.025Z,88.00
2019-05-30T05:30:46.714Z,87.70
2019-05-30T05:33:16.558Z,87.80
2019-05-30T05:35:45.326Z,87.60
2019-05-30T05:38:13.725Z,87.30
2019-05-30T05:40:42.401Z,87.10
2019-05-30T05:43:10.972Z,86.60
2019-05-30T05:45:39.385Z,86.80
2019-05-30T05:50:35.905Z,87.00
2019-05-30T05:53:04.313Z,87.10
2019-05-30T05:55:32.717Z,87.30
2019-05-30T05:58:04.168Z,87.10
2019-05-30T06:00:31.260Z,87.20
2019-05-30T06:02:59.671Z,86.90
2019-05-30T06:05:28.440Z,87.20
2019-05-30T06:07:56.969Z,87.00
2019-05-30T06:12:54.334Z,86.10
2019-05-30T06:17:51.515Z,85.40
2019-05-30T06:20:21.253Z,84.90
2019-05-30T06:22:49.748Z,83.30
2019-05-30T06:27:48.060Z,81.60
2019-05-30T06:30:18.125Z,81.20
2019-05-30T06:32:46.811Z,80.20
2019-05-30T06:35:15.340Z,79.90
2019-05-30T06:37:43.758Z,78.90
2019-05-30T06:40:12.603Z,77.60
2019-05-30T06:42:41.017Z,77.60
2019-05-30T06:45:09.593Z,77.30
2019-05-30T06:47:38.008Z,76.10
2019-05-30T06:50:07.961Z,74.70
2019-05-30T06:52:36.369Z,73.80
2019-05-30T06:55:06.347Z,73.70
2019-05-30T06:57:34.783Z,73.90
2019-05-30T07:00:04.790Z,74.90
2019-05-30T07:02:33.237Z,74.50
2019-05-30T07:07:31.416Z,75.30
2019-05-30T07:12:28.989Z,70.60
2019-05-30T07:17:25.560Z,68.90
2019-05-30T07:19:53.960Z,69.00
2019-05-30T07:32:14.781Z,65.70
2019-05-30T07:42:09.146Z,70.50
2019-05-30T07:44:37.549Z,73.00
2019-05-30T07:47:05.965Z,73.90
2019-05-30T07:52:03.241Z,71.90
2019-05-30T07:54:32.956Z,70.40
2019-05-30T07:57:01.617Z,70.40
2019-05-30T07:59:30.373Z,71.00
2019-05-30T08:01:59.105Z,71.50
2019-05-30T08:04:27.508Z,72.00
2019-05-30T08:06:55.925Z,69.00
2019-05-30T08:09:24.392Z,71.10
2019-05-30T08:11:52.889Z,70.30
2019-05-30T08:14:21.309Z,70.80
2019-05-30T08:19:17.832Z,70.30
2019-05-30T08:21:46.242Z,71.50
2019-05-30T08:44:01.737Z,68.30
2019-05-30T08:46:30.234Z,69.80
2019-05-30T08:49:01.636Z,70.20
2019-05-30T08:51:30.005Z,70.20
2019-05-30T08:53:58.728Z,69.90
2019-05-30T08:56:28.566Z,67.60
2019-05-30T08:58:57.301Z,70.20
2019-05-30T09:03:53.801Z,71.90
2019-05-30T09:06:22.204Z,72.50
2019-05-30T09:11:18.693Z,73.00
2019-05-30T09:13:47.113Z,75.40
2019-05-30T09:16:15.517Z,72.80
2019-05-30T09:18:45.162Z,68.70
2019-05-30T09:21:13.822Z,66.70
2019-05-30T09:28:40.689Z,68.40
2019-05-30T09:31:09.535Z,69.40
2019-05-30T09:33:38.118Z,70.80
2019-05-30T09:38:37.609Z,71.80
2019-05-30T09:43:34.094Z,72.90
2019-05-30T09:46:02.507Z,73.20
2019-05-30T09:50:59.437Z,74.10
2019-05-30T09:53:27.848Z,74.20
2019-05-30T09:58:24.404Z,74.30
2019-05-30T10:03:21.899Z,74.10
2019-05-30T10:13:16.315Z,73.90
2019-05-30T10:18:14.529Z,73.70
2019-05-30T10:20:42.944Z,73.10
2019-05-30T10:23:11.356Z,71.20
2019-05-30T10:25:39.768Z,69.10
2019-05-30T10:28:08.190Z,67.50
2019-05-30T10:30:36.891Z,66.30
2019-05-30T10:33:05.340Z,67.50
2019-05-30T10:35:33.760Z,66.60
2019-05-30T10:38:02.175Z,65.50
2019-05-30T10:40:32.193Z,66.70
2019-05-30T10:43:00.744Z,65.90
2019-05-30T10:45:29.497Z,65.60
2019-05-30T10:47:57.902Z,63.40
2019-05-30T10:52:55.536Z,67.20
2019-05-30T10:57:56.273Z,67.30
2019-05-30T11:02:53.337Z,68.80
2019-05-30T11:05:22.117Z,68.40
2019-05-30T11:08:05.523Z,68.20
2019-05-30T11:10:35.794Z,68.80
2019-05-30T11:13:05.968Z,68.90
2019-05-30T11:15:34.721Z,68.90
2019-05-30T11:18:03.122Z,64.70
2019-05-30T11:20:31.537Z,66.30
2019-05-30T11:22:59.958Z,65.60
2019-05-30T11:25:28.376Z,68.10
2019-05-30T11:27:56.936Z,65.90
2019-05-30T11:30:25.476Z,64.90
2019-05-30T11:32:55.142Z,66.90
2019-05-30T11:35:23.774Z,67.80
2019-05-30T11:37:53.075Z,68.70
2019-05-30T11:40:21.782Z,65.50
2019-05-30T11:42:51.203Z,63.30
2019-05-30T11:45:20.060Z,65.30
2019-05-30T11:47:49.539Z,67.00
2019-05-30T11:50:19.489Z,65.80
2019-05-30T11:52:47.892Z,66.30
2019-05-30T11:55:16.377Z,64.80
2019-05-30T12:00:14.415Z,65.90
2019-05-30T12:02:42.824Z,65.90
2019-05-30T12:05:12.978Z,67.20
2019-05-30T12:07:41.378Z,65.70
2019-05-30T12:10:10.325Z,66.50
2019-05-30T12:12:38.735Z,66.90
2019-05-30T12:15:08.094Z,67.40
2019-05-30T12:22:34.056Z,68.90
2019-05-30T12:25:02.816Z,68.00
2019-05-30T12:27:31.436Z,67.80
2019-05-30T12:30:00.382Z,68.80
2019-05-30T12:32:29.036Z,69.00
2019-05-30T12:34:58.406Z,69.20
2019-05-30T12:37:26.926Z,69.50
2019-05-30T12:39:56.450Z,69.60
2019-05-30T12:42:25.215Z,69.50
2019-05-30T12:44:54.924Z,69.60
2019-05-30T12:47:23.525Z,67.40
2019-05-30T12:49:53.207Z,66.70
2019-05-30T12:52:21.927Z,67.10
2019-05-30T12:54:50.322Z,67.10
2019-05-30T12:57:18.733Z,67.20
2019-05-30T13:02:15.226Z,66.70
2019-05-30T13:04:43.625Z,66.80
2019-05-30T13:07:12.045Z,66.20
2019-05-30T13:09:40.454Z,66.70
2019-05-30T13:12:08.929Z,65.60
2019-05-30T13:14:37.335Z,67.60
2019-05-30T13:17:06.038Z,66.30
2019-05-30T13:19:34.559Z,67.40
2019-05-30T13:22:03.483Z,67.80
2019-05-30T13:24:32.625Z,68.00
2019-05-30T13:27:01.812Z,68.30
2019-05-30T13:29:30.424Z,68.80
2019-05-30T13:31:58.838Z,68.80
2019-05-30T13:34:27.236Z,69.00
2019-05-30T13:36:56.798Z,68.40
2019-05-30T13:39:25.443Z,68.80
2019-05-30T13:46:50.029Z,67.00
2019-05-30T13:49:18.434Z,67.60
2019-05-30T13:51:46.853Z,68.20
2019-05-30T13:54:15.262Z,68.50
2019-05-30T13:56:43.669Z,68.60
2019-05-30T13:59:12.077Z,68.90
2019-05-30T14:04:08.573Z,67.40
2019-05-30T14:06:36.992Z,69.20
2019-05-30T14:09:08.443Z,69.80
2019-05-30T14:11:37.251Z,69.70
2019-05-30T14:14:06.845Z,69.00
2019-05-30T14:19:05.236Z,69.40
2019-05-30T14:21:33.904Z,67.60
2019-05-30T14:26:30.055Z,68.10
2019-05-30T14:31:26.561Z,68.60
2019-05-30T14:33:54.968Z,69.10
2019-05-30T14:38:58.280Z,68.60
2019-05-30T14:41:21.605Z,68.20
2019-05-30T14:43:50.026Z,67.40
2019-05-30T14:46:18.422Z,67.60
2019-05-30T14:48:46.845Z,67.10
2019-05-30T14:51:15.323Z,67.30
2019-05-30T14:53:43.756Z,67.80
2019-05-30T14:56:13.530Z,67.50
2019-05-30T14:58:42.246Z,68.40
2019-05-30T15:01:11.233Z,68.70
2019-05-30T15:06:10.537Z,68.60
2019-05-30T15:08:38.078Z,69.80
2019-05-30T15:13:36.036Z,68.30
2019-05-30T15:16:04.738Z,68.70
2019-05-30T15:18:33.440Z,69.20
2019-05-30T15:21:01.853Z,69.70
2019-05-30T15:23:30.271Z,70.00
2019-05-30T15:25:58.679Z,69.70
2019-05-30T15:30:55.217Z,68.40
2019-05-30T15:38:19.876Z,67.80
2019-05-30T15:40:48.293Z,67.50
2019-05-30T15:45:46.052Z,67.70
2019-05-30T15:48:14.494Z,67.50
2019-05-30T15:50:42.900Z,67.20
2019-05-30T15:53:11.312Z,68.30
2019-05-30T15:58:07.810Z,68.50
2019-05-30T16:00:37.057Z,67.60
2019-05-30T16:03:05.817Z,68.40
2019-05-30T16:05:34.225Z,67.50
2019-05-30T16:08:02.673Z,68.60
2019-05-30T16:10:31.077Z,67.80
2019-05-30T16:12:59.493Z,68.00
2019-05-30T16:15:27.909Z,67.30
2019-05-30T16:17:56.377Z,66.90
2019-05-30T16:20:24.781Z,67.10
2019-05-30T16:22:53.679Z,67.20
2019-05-30T16:25:22.069Z,66.20
2019-05-30T16:32:48.370Z,67.70
2019-05-30T16:35:18.073Z,67.20
2019-05-30T16:37:46.819Z,67.10
2019-05-30T16:42:45.017Z,66.90
2019-05-30T16:45:20.381Z,66.90
2019-05-30T16:47:44.634Z,66.90
2019-05-30T16:50:14.916Z,67.00
2019-05-30T16:52:43.342Z,67.40
2019-05-30T16:55:12.430Z,66.90
2019-05-30T16:57:40.818Z,66.90
2019-05-30T17:00:13.090Z,67.10
2019-05-30T17:02:41.503Z,66.80
2019-05-30T17:05:10.664Z,67.50
2019-05-30T17:10:21.535Z,67.60
2019-05-30T17:12:38.583Z,68.30
2019-05-30T17:15:09.914Z,67.80
2019-05-30T17:20:08.522Z,68.30
2019-05-30T17:22:36.930Z,68.30
2019-05-30T17:25:07.073Z,68.20
2019-05-30T17:27:35.888Z,68.30
2019-05-30T17:30:09.790Z,68.00
2019-05-30T17:32:38.333Z,68.50
2019-05-30T17:37:38.299Z,70.00
2019-05-30T17:40:08.452Z,70.60
2019-05-30T17:42:37.148Z,71.20
2019-05-30T17:47:34.808Z,71.30
2019-05-30T17:50:05.161Z,71.70
2019-05-30T17:52:33.565Z,72.00
2019-05-30T17:55:01.991Z,72.30
2019-05-30T17:57:30.468Z,72.50
2019-05-30T18:02:26.964Z,72.80
2019-05-30T18:04:55.366Z,72.90
2019-05-30T18:07:24.885Z,72.90
2019-05-30T18:09:55.299Z,72.50
2019-05-30T18:14:51.698Z,73.00
2019-05-30T18:19:49.823Z,73.20
2019-05-30T18:22:18.306Z,73.20
2019-05-30T18:24:46.713Z,73.10
2019-05-30T18:27:15.117Z,73.30
2019-05-30T18:29:43.533Z,73.50
2019-05-30T18:32:12.013Z,74.00
2019-05-30T18:34:40.433Z,74.10
2019-05-30T18:37:08.836Z,74.40
2019-05-30T18:39:37.258Z,74.60
2019-05-30T18:42:05.668Z,74.70
2019-05-30T18:44:34.453Z,74.60
2019-05-30T18:49:31.366Z,74.80
2019-05-30T18:51:59.849Z,74.90
2019-05-30T18:54:28.551Z,75.20
2019-05-30T18:56:57.044Z,75.20
2019-05-30T18:59:25.529Z,75.30
2019-05-30T19:01:53.937Z,75.40
2019-05-30T19:06:51.512Z,75.60
2019-05-30T19:09:19.916Z,75.80
2019-05-30T19:11:48.340Z,76.00
2019-05-30T19:16:44.835Z,76.10
2019-05-30T19:19:13.246Z,76.30
2019-05-30T19:21:41.673Z,76.30
2019-05-30T19:26:38.232Z,76.70
2019-05-30T19:29:06.703Z,76.90
2019-05-30T19:31:35.125Z,77.00
2019-05-30T19:34:03.528Z,76.90
2019-05-30T19:36:33.028Z,77.00
2019-05-30T19:39:01.597Z,77.10
2019-05-30T19:41:46.010Z,77.20
2019-05-30T19:44:00.155Z,77.40
2019-05-30T19:46:28.574Z,77.60
2019-05-30T19:48:56.992Z,77.70
2019-05-30T19:51:25.419Z,77.60
2019-05-30T19:56:21.936Z,77.70
2019-05-30T19:58:50.343Z,77.70
2019-05-30T20:01:18.765Z,78.00
2019-05-30T20:03:47.232Z,77.80
2019-05-30T20:11:13.549Z,78.20
2019-05-30T20:13:41.955Z,78.20
2019-05-30T20:16:10.368Z,78.60
2019-05-30T20:18:39.725Z,78.70
2019-05-30T20:21:08.360Z,78.70
2019-05-30T20:23:49.505Z,78.70
2019-05-30T20:26:06.911Z,78.80
2019-05-30T20:31:03.409Z,78.80
2019-05-30T20:33:31.829Z,78.80
2019-05-30T20:36:00.279Z,79.10
2019-05-30T20:38:28.737Z,79.40
2019-05-30T20:40:57.153Z,79.50
2019-05-30T20:43:25.569Z,79.80
2019-05-30T20:45:53.980Z,79.90
2019-05-30T20:50:50.485Z,80.30
2019-05-30T20:53:39.126Z,80.60
2019-05-30T20:56:07.563Z,80.50
2019-05-30T20:58:35.965Z,80.80
2019-05-30T21:01:04.364Z,80.80
2019-05-30T21:03:32.941Z,80.90
2019-05-30T21:06:01.910Z,80.80
2019-05-30T21:08:31.327Z,81.00
2019-05-30T21:11:02.450Z,80.80
2019-05-30T21:13:33.944Z,80.80
2019-05-30T21:16:03.381Z,80.60
2019-05-30T21:18:33.338Z,80.60
2019-05-30T21:21:01.747Z,80.50
2019-05-30T21:23:30.160Z,80.40
2019-05-30T21:25:58.577Z,80.40
2019-05-30T21:28:26.993Z,80.50
2019-05-30T21:30:55.405Z,80.40
2019-05-30T21:33:23.822Z,80.40
2019-05-30T21:35:52.263Z,80.50
2019-05-30T21:38:20.716Z,80.50
2019-05-30T21:40:49.127Z,80.40
2019-05-30T21:43:17.541Z,80.40
2019-05-30T21:48:15.423Z,80.40
2019-05-30T21:50:45.969Z,80.50
2019-05-30T21:55:42.034Z,80.50
2019-05-30T21:58:10.460Z,80.40
2019-05-30T22:00:51.086Z,80.40
2019-05-30T22:03:19.578Z,80.40
2019-05-30T22:05:48.565Z,80.50
2019-05-30T22:08:18.246Z,80.30
2019-05-30T22:10:47.684Z,80.30
2019-05-30T22:13:16.362Z,80.50
2019-05-30T22:15:45.962Z,80.60
2019-05-30T22:18:14.551Z,80.80
2019-05-30T22:20:43.829Z,80.90
2019-05-30T22:25:40.622Z,81.10
2019-05-30T22:28:09.036Z,81.00
2019-05-30T22:30:37.449Z,80.90
2019-05-30T22:33:05.937Z,81.20
2019-05-30T22:35:34.329Z,81.20
2019-05-30T22:38:02.756Z,81.20
2019-05-30T22:42:59.248Z,81.10
2019-05-30T22:45:27.659Z,81.00
2019-05-30T22:47:56.807Z,81.00
2019-05-30T22:50:25.370Z,81.10
2019-05-30T22:52:53.789Z,81.10
2019-05-30T22:55:22.200Z,81.10
2019-05-30T22:57:50.624Z,81.20
2019-05-30T23:00:19.104Z,81.30
2019-05-30T23:02:47.879Z,81.40
2019-05-30T23:05:16.812Z,81.60
2019-05-30T23:07:45.358Z,81.60
2019-05-30T23:10:13.988Z,81.50
2019-05-30T23:12:44.062Z,81.50
2019-05-30T23:15:12.537Z,81.60
2019-05-30T23:17:40.969Z,81.60
2019-05-30T23:20:10.040Z,81.70
2019-05-30T23:22:38.454Z,81.60
2019-05-30T23:25:09.715Z,81.60
2019-05-30T23:27:38.122Z,81.50
2019-05-30T23:30:07.449Z,81.60
2019-05-30T23:32:35.852Z,81.60
2019-05-30T23:35:05.003Z,81.70
2019-05-30T23:37:33.408Z,81.50
2019-05-30T23:40:01.823Z,81.60
2019-05-30T23:42:30.213Z,81.60
2019-05-30T23:44:59.565Z,81.70
2019-05-30T23:49:56.385Z,81.60
2019-05-30T23:54:54.109Z,81.70
2019-05-30T23:57:22.940Z,81.60
2019-05-30T23:59:52.627Z,81.50
